Yuma, Arizona
Current Conditions -  °F | °C
As of 3:57 PM on Monday 20 Oct 2014 (Local Time) from KNYL Reporting Station
Clear Clear  
Wind Chill: 93°   Ceiling: Unl
Heat Index: 93°   Visibility: 10mi
Dew Point: 48°   Wind: 3mph
Humidity: 21%   Direction: 60°ENE
Pressure: 29.76"   Gusts: NA
Location:  32.68°N, 114.62°W
Report Text: KNYL 202257Z 06003KT 10SM CLR 34/09 A2976 RMK AO2 SLP074 T03390089
Loading
Personal Weather Stations






























Interactive Weather Map
Tropical Storm Tracking
New forecast layout! Learn more

10-Day Weather Forecast

Advertisements
Track Severe Weather on mobile